createdAt,value
2018-12-09T00:01:08.415Z,9.76
2018-12-09T00:03:37.678Z,9.78
2018-12-09T00:06:06.944Z,9.82
2018-12-09T00:08:36.232Z,9.87
2018-12-09T00:11:05.482Z,9.90
2018-12-09T00:13:34.749Z,9.93
2018-12-09T00:16:04.023Z,9.91
2018-12-09T00:18:33.294Z,9.92
2018-12-09T00:21:02.550Z,9.93
2018-12-09T00:23:31.817Z,9.94
2018-12-09T00:26:01.070Z,9.96
2018-12-09T00:28:30.331Z,9.98
2018-12-09T00:30:59.582Z,9.99
2018-12-09T00:33:28.852Z,10.01
2018-12-09T00:35:58.142Z,10.05
2018-12-09T00:38:27.406Z,10.08
2018-12-09T00:40:56.676Z,10.09
2018-12-09T00:43:25.933Z,10.12
2018-12-09T00:45:55.208Z,10.15
2018-12-09T00:48:24.470Z,10.16
2018-12-09T00:50:53.744Z,10.16
2018-12-09T00:53:22.999Z,10.16
2018-12-09T00:55:52.278Z,10.14
2018-12-09T00:58:21.544Z,10.13
2018-12-09T01:00:50.809Z,10.14
2018-12-09T01:03:20.073Z,10.15
2018-12-09T01:05:49.339Z,10.13
2018-12-09T01:08:18.608Z,10.12
2018-12-09T01:10:47.895Z,10.14
2018-12-09T01:13:17.159Z,10.16
2018-12-09T01:15:46.424Z,10.14
2018-12-09T01:18:15.690Z,10.13
2018-12-09T01:20:44.956Z,10.14
2018-12-09T01:23:14.253Z,10.14
2018-12-09T01:25:43.548Z,10.12
2018-12-09T01:28:12.782Z,10.07
2018-12-09T01:30:42.057Z,9.97
2018-12-09T01:33:12.233Z,9.81
2018-12-09T01:35:41.498Z,9.72
2018-12-09T01:38:10.762Z,9.66
2018-12-09T01:40:58.781Z,9.62
2018-12-09T01:43:28.042Z,9.56
2018-12-09T01:45:57.312Z,9.49
2018-12-09T01:48:26.567Z,9.44
2018-12-09T01:50:55.826Z,9.40
2018-12-09T01:54:03.172Z,9.39
2018-12-09T01:56:32.634Z,9.36
2018-12-09T01:59:01.887Z,9.27
2018-12-09T02:01:31.169Z,9.21
2018-12-09T02:04:00.426Z,9.20
2018-12-09T02:06:29.696Z,9.20
2018-12-09T02:08:58.947Z,9.19
2018-12-09T02:11:28.213Z,9.20
2018-12-09T02:13:57.488Z,9.18
2018-12-09T02:16:26.759Z,9.17
2018-12-09T02:19:28.118Z,9.14
2018-12-09T02:21:57.476Z,9.10
2018-12-09T02:24:26.755Z,9.10
2018-12-09T02:26:56.033Z,9.06
2018-12-09T02:29:25.305Z,9.02
2018-12-09T02:31:54.574Z,9.00
2018-12-09T02:34:24.749Z,9.01
2018-12-09T02:36:54.000Z,8.99
2018-12-09T02:39:23.263Z,8.97
2018-12-09T02:41:52.525Z,8.95
2018-12-09T02:44:22.702Z,8.88
2018-12-09T02:46:51.976Z,8.83
2018-12-09T02:49:21.242Z,8.80
2018-12-09T02:51:50.521Z,8.73
2018-12-09T02:54:19.790Z,8.67
2018-12-09T02:56:49.068Z,8.61
2018-12-09T02:59:18.330Z,8.59
2018-12-09T03:01:47.715Z,8.54
2018-12-09T03:04:16.963Z,8.48
2018-12-09T03:06:46.232Z,8.48
2018-12-09T03:09:15.504Z,8.49
2018-12-09T03:11:44.779Z,8.47
2018-12-09T03:14:14.038Z,8.43
2018-12-09T03:16:44.214Z,8.39
2018-12-09T03:19:13.492Z,8.38
2018-12-09T03:21:42.769Z,8.37
2018-12-09T03:24:31.099Z,8.31
2018-12-09T03:27:00.379Z,8.32
2018-12-09T03:29:29.655Z,8.37
2018-12-09T03:32:17.989Z,8.39
2018-12-09T03:34:47.343Z,8.38
2018-12-09T03:37:16.620Z,8.37
2018-12-09T03:39:45.879Z,8.35
2018-12-09T03:42:15.160Z,8.32
2018-12-09T03:44:44.428Z,8.30
2018-12-09T03:47:13.705Z,8.32
2018-12-09T03:49:42.974Z,8.32
2018-12-09T03:52:12.252Z,8.31
2018-12-09T03:54:42.416Z,8.30
2018-12-09T03:57:11.696Z,8.28
2018-12-09T03:59:40.962Z,8.29
2018-12-09T04:02:10.231Z,8.29
2018-12-09T04:04:39.496Z,8.29
2018-12-09T04:07:08.776Z,8.31
2018-12-09T04:09:57.101Z,8.33
2018-12-09T04:12:26.375Z,8.31
2018-12-09T04:14:55.630Z,8.33
2018-12-09T04:17:24.915Z,8.31
2018-12-09T04:19:54.180Z,8.32
2018-12-09T04:22:23.457Z,8.32
2018-12-09T04:24:53.634Z,8.31
2018-12-09T04:27:22.907Z,8.30
2018-12-09T04:29:52.171Z,8.29
2018-12-09T04:32:21.435Z,8.30
2018-12-09T04:34:50.685Z,8.32
2018-12-09T04:37:19.959Z,8.33
2018-12-09T04:39:49.211Z,8.34
2018-12-09T04:42:18.499Z,8.35
2018-12-09T04:44:47.797Z,8.38
2018-12-09T04:47:17.058Z,8.41
2018-12-09T04:49:46.315Z,8.42
2018-12-09T04:52:15.578Z,8.43
2018-12-09T04:54:44.842Z,8.44
2018-12-09T04:57:14.119Z,8.45
2018-12-09T05:00:21.433Z,8.45
2018-12-09T05:02:51.011Z,8.48
2018-12-09T05:05:20.266Z,8.46
2018-12-09T05:07:49.532Z,8.46
2018-12-09T05:10:18.775Z,8.46
2018-12-09T05:12:48.054Z,8.48
2018-12-09T05:15:17.305Z,8.50
2018-12-09T05:17:46.574Z,8.47
2018-12-09T05:20:15.829Z,8.48
2018-12-09T05:22:45.105Z,8.44
2018-12-09T05:25:15.264Z,8.42
2018-12-09T05:27:44.537Z,8.44
2018-12-09T05:30:13.793Z,8.43
2018-12-09T05:32:43.375Z,8.43
2018-12-09T05:35:12.628Z,8.45
2018-12-09T05:37:41.898Z,8.43
2018-12-09T05:40:12.069Z,8.43
2018-12-09T05:42:41.369Z,8.40
2018-12-09T05:45:10.662Z,8.40
2018-12-09T05:47:40.848Z,8.43
2018-12-09T05:50:10.156Z,8.43
2018-12-09T05:52:39.429Z,8.41
2018-12-09T05:55:27.755Z,8.40
2018-12-09T05:57:57.027Z,8.40
2018-12-09T06:00:26.289Z,8.40
2018-12-09T06:02:57.189Z,8.42
2018-12-09T06:05:26.458Z,8.44
2018-12-09T06:07:55.721Z,8.42
2018-12-09T06:10:24.991Z,8.45
2018-12-09T06:12:54.265Z,8.48
2018-12-09T06:15:23.587Z,8.47
2018-12-09T06:17:52.882Z,8.50
2018-12-09T06:20:22.165Z,8.53
2018-12-09T06:22:51.444Z,8.54
2018-12-09T06:25:39.779Z,8.56
2018-12-09T06:28:09.081Z,8.58
2018-12-09T06:30:38.334Z,8.57
2018-12-09T06:33:07.598Z,8.57
2018-12-09T06:35:36.871Z,8.56
2018-12-09T06:38:06.332Z,8.59
2018-12-09T06:40:35.601Z,8.62
2018-12-09T06:43:04.854Z,8.62
2018-12-09T06:45:34.117Z,8.62
2018-12-09T06:48:03.376Z,8.62
2018-12-09T06:50:32.746Z,8.62
2018-12-09T06:53:01.994Z,8.60
2018-12-09T06:55:31.265Z,8.60
2018-12-09T06:58:00.523Z,8.58
2018-12-09T07:00:29.787Z,8.58
2018-12-09T07:02:59.034Z,8.58
2018-12-09T07:05:28.301Z,8.58
2018-12-09T07:07:57.558Z,8.58
2018-12-09T07:10:26.826Z,8.59
2018-12-09T07:12:56.079Z,8.59
2018-12-09T07:15:25.360Z,8.61
2018-12-09T07:17:54.623Z,8.64
2018-12-09T07:20:23.886Z,8.66
2018-12-09T07:23:12.236Z,8.67
2018-12-09T07:25:41.511Z,8.65
2018-12-09T07:28:10.783Z,8.65
2018-12-09T07:30:40.055Z,8.66
2018-12-09T07:33:09.315Z,8.65
2018-12-09T07:35:38.594Z,8.67
2018-12-09T07:38:07.855Z,8.69
2018-12-09T07:40:37.122Z,8.71
2018-12-09T07:43:06.375Z,8.71
2018-12-09T07:45:36.551Z,8.71
2018-12-09T07:48:05.796Z,8.72
2018-12-09T07:50:35.058Z,8.71
2018-12-09T07:53:04.340Z,8.69
2018-12-09T07:55:33.625Z,8.70
2018-12-09T07:58:02.880Z,8.73
2018-12-09T08:00:51.204Z,8.76
2018-12-09T08:03:20.462Z,8.77
2018-12-09T08:05:49.730Z,8.76
2018-12-09T08:08:18.990Z,8.76
2018-12-09T08:10:48.268Z,8.74
2018-12-09T08:13:17.526Z,8.75
2018-12-09T08:15:46.802Z,8.78
2018-12-09T08:18:16.059Z,8.78
2018-12-09T08:20:45.327Z,8.76
2018-12-09T08:23:14.587Z,8.78
2018-12-09T08:25:43.854Z,8.79
2018-12-09T08:28:13.110Z,8.82
2018-12-09T08:30:42.375Z,8.87
2018-12-09T08:33:11.641Z,8.90
2018-12-09T08:35:40.906Z,8.94
2018-12-09T08:38:10.285Z,8.95
2018-12-09T08:40:39.555Z,8.95
2018-12-09T08:43:08.814Z,8.97
2018-12-09T08:45:38.181Z,8.99
2018-12-09T08:48:07.446Z,9.02
2018-12-09T08:50:36.724Z,9.04
2018-12-09T08:53:05.992Z,9.07
2018-12-09T08:55:35.264Z,9.06
2018-12-09T08:58:04.518Z,9.09
2018-12-09T09:00:33.790Z,9.10
2018-12-09T09:03:03.062Z,9.11
2018-12-09T09:05:32.357Z,9.13
2018-12-09T09:10:50.000Z,9.23
2018-12-09T09:13:19.251Z,9.61
2018-12-09T09:15:48.519Z,9.86
2018-12-09T09:18:17.780Z,10.05
2018-12-09T09:23:22.398Z,10.27
2018-12-09T09:25:51.664Z,10.36
2018-12-09T09:31:09.343Z,10.53
2018-12-09T09:36:27.012Z,10.65
2018-12-09T09:41:44.685Z,10.95
2018-12-09T09:44:13.953Z,11.00
2018-12-09T09:46:43.225Z,11.09
2018-12-09T09:52:00.887Z,11.27
2018-12-09T09:54:30.153Z,11.19
2018-12-09T09:56:59.433Z,11.14
2018-12-09T10:02:17.108Z,11.21
2018-12-09T10:07:34.768Z,11.35
2018-12-09T10:10:04.044Z,11.31
2018-12-09T10:15:08.449Z,11.39
2018-12-09T10:17:37.731Z,11.35
2018-12-09T10:20:07.673Z,11.36
2018-12-09T10:22:36.960Z,11.16
2018-12-09T10:25:06.643Z,11.10
2018-12-09T10:27:35.922Z,10.97
2018-12-09T10:30:05.394Z,10.96
2018-12-09T10:32:34.668Z,11.03
2018-12-09T10:37:52.350Z,10.99
2018-12-09T10:40:21.615Z,10.94
2018-12-09T10:42:50.881Z,10.96
2018-12-09T10:45:20.149Z,10.83
2018-12-09T10:50:23.971Z,10.90
2018-12-09T10:52:53.259Z,11.10
2018-12-09T10:55:22.522Z,11.19
2018-12-09T10:58:11.408Z,11.14
2018-12-09T11:00:59.405Z,11.10
2018-12-09T11:03:28.694Z,11.09
2018-12-09T11:05:57.960Z,11.33
2018-12-09T11:08:27.328Z,11.38
2018-12-09T11:10:56.586Z,11.34
2018-12-09T11:13:25.862Z,11.31
2018-12-09T11:15:55.153Z,11.28
2018-12-09T11:18:24.433Z,11.31
2018-12-09T11:20:53.700Z,11.31
2018-12-09T11:23:22.971Z,11.22
2018-12-09T11:25:52.239Z,11.10
2018-12-09T11:28:21.503Z,10.92
2018-12-09T11:30:50.769Z,10.84
2018-12-09T11:33:20.057Z,10.81
2018-12-09T11:35:49.314Z,10.85
2018-12-09T11:38:18.604Z,10.84
2018-12-09T11:40:47.866Z,10.88
2018-12-09T11:43:23.985Z,10.97
2018-12-09T11:48:41.664Z,11.18
2018-12-09T11:51:10.932Z,11.25
2018-12-09T11:53:59.824Z,11.17
2018-12-09T11:56:29.129Z,11.25
2018-12-09T11:58:58.403Z,11.41
2018-12-09T12:01:27.666Z,11.52
2018-12-09T12:03:56.978Z,11.56
2018-12-09T12:06:26.267Z,11.64
2018-12-09T12:08:55.512Z,11.61
2018-12-09T12:11:24.774Z,11.55
2018-12-09T12:13:54.042Z,11.45
2018-12-09T12:16:23.328Z,11.34
2018-12-09T12:18:52.606Z,11.31
2018-12-09T12:21:21.898Z,11.34
2018-12-09T12:23:51.155Z,11.34
2018-12-09T12:26:20.528Z,11.31
2018-12-09T12:28:49.873Z,11.25
2018-12-09T12:31:19.156Z,11.25
2018-12-09T12:33:48.450Z,11.27
2018-12-09T12:36:17.729Z,11.15
2018-12-09T12:38:46.999Z,11.08
2018-12-09T12:41:16.274Z,10.97
2018-12-09T12:44:05.274Z,10.87
2018-12-09T12:46:34.563Z,10.82
2018-12-09T12:49:03.847Z,10.83
2018-12-09T12:51:33.179Z,10.77
2018-12-09T12:54:02.474Z,10.61
2018-12-09T12:56:50.793Z,10.40
2018-12-09T12:59:20.059Z,10.25
2018-12-09T13:01:49.337Z,10.09
2018-12-09T13:04:18.620Z,10.02
2018-12-09T13:06:47.881Z,9.97
2018-12-09T13:09:17.141Z,9.89
2018-12-09T13:12:06.021Z,9.81
2018-12-09T13:14:35.292Z,9.72
2018-12-09T13:17:04.592Z,9.64
2018-12-09T13:19:33.862Z,9.59
2018-12-09T13:22:03.133Z,9.60
2018-12-09T13:24:32.400Z,9.58
2018-12-09T13:27:01.686Z,9.56
2018-12-09T13:29:30.950Z,9.51
2018-12-09T13:32:00.228Z,9.48
2018-12-09T13:34:29.491Z,9.41
2018-12-09T13:36:58.774Z,9.37
2018-12-09T13:39:28.041Z,9.36
2018-12-09T13:41:57.316Z,9.37
2018-12-09T13:44:26.579Z,9.40
2018-12-09T13:46:55.906Z,9.44
2018-12-09T13:49:25.169Z,9.45
2018-12-09T13:51:54.448Z,9.45
2018-12-09T13:54:23.717Z,9.43
2018-12-09T13:56:52.984Z,9.41
2018-12-09T13:59:22.254Z,9.41
2018-12-09T14:01:51.520Z,9.39
2018-12-09T14:04:20.784Z,9.38
2018-12-09T14:06:50.086Z,9.35
2018-12-09T14:09:19.434Z,9.31
2018-12-09T14:11:48.647Z,9.29
2018-12-09T14:14:17.934Z,9.28
2018-12-09T14:16:47.217Z,9.25
2018-12-09T14:19:16.494Z,9.27
2018-12-09T14:21:45.790Z,9.27
2018-12-09T14:24:15.043Z,9.25
2018-12-09T14:26:44.311Z,9.25
2018-12-09T14:29:33.199Z,9.23
2018-12-09T14:32:02.500Z,9.18
2018-12-09T14:34:31.768Z,9.13
2018-12-09T14:37:01.051Z,9.12
2018-12-09T14:39:30.307Z,9.12
2018-12-09T14:41:59.572Z,9.07
2018-12-09T14:44:29.476Z,9.03
2018-12-09T14:46:59.001Z,9.01
2018-12-09T14:49:48.199Z,9.00
2018-12-09T14:52:17.486Z,9.01
2018-12-09T14:54:46.742Z,8.97
2018-12-09T14:57:16.017Z,8.96
2018-12-09T14:59:45.279Z,8.94
2018-12-09T15:02:14.545Z,8.92
2018-12-09T15:04:43.808Z,8.89
2018-12-09T15:07:13.080Z,8.88
2018-12-09T15:09:42.427Z,8.84
2018-12-09T15:15:06.666Z,8.80
2018-12-09T15:17:35.941Z,8.80
2018-12-09T15:20:05.686Z,8.73
2018-12-09T15:22:34.959Z,8.70
2018-12-09T15:25:04.251Z,8.67
2018-12-09T15:27:33.525Z,8.67
2018-12-09T15:30:02.796Z,8.69
2018-12-09T15:32:32.083Z,8.68
2018-12-09T15:35:01.391Z,9.37
2018-12-09T15:37:30.727Z,10.40
2018-12-09T15:40:00.010Z,11.19
2018-12-09T15:42:29.349Z,12.11
2018-12-09T15:44:58.620Z,12.98
2018-12-09T15:47:27.921Z,13.59
2018-12-09T15:49:57.193Z,13.80
2018-12-09T15:52:26.486Z,14.25
2018-12-09T15:54:55.775Z,14.58
2018-12-09T15:57:25.082Z,14.44
2018-12-09T15:59:54.366Z,14.24
2018-12-09T16:02:23.725Z,14.00
2018-12-09T16:05:11.973Z,13.92
2018-12-09T16:07:41.331Z,13.65
2018-12-09T16:10:11.586Z,12.72
2018-12-09T16:12:40.906Z,11.96
2018-12-09T16:15:10.208Z,11.40
2018-12-09T16:17:39.499Z,10.85
2018-12-09T16:20:08.814Z,10.44
2018-12-09T16:22:38.097Z,10.17
2018-12-09T16:25:07.354Z,9.98
2018-12-09T16:27:36.617Z,9.77
2018-12-09T16:30:06.524Z,9.63
2018-12-09T16:32:35.776Z,9.54
2018-12-09T16:35:05.334Z,9.48
2018-12-09T16:37:34.613Z,9.36
2018-12-09T16:40:03.910Z,9.30
2018-12-09T16:42:33.169Z,9.21
2018-12-09T16:45:02.468Z,9.16
2018-12-09T16:47:31.751Z,9.10
2018-12-09T16:50:01.052Z,9.07
2018-12-09T16:52:30.311Z,9.04
2018-12-09T16:54:59.582Z,9.03
2018-12-09T16:57:28.855Z,8.97
2018-12-09T16:59:58.112Z,8.93
2018-12-09T17:02:27.372Z,8.87
2018-12-09T17:04:56.653Z,8.83
2018-12-09T17:07:25.912Z,8.78
2018-12-09T17:09:55.183Z,8.76
2018-12-09T17:12:24.430Z,8.74
2018-12-09T17:14:53.700Z,8.76
2018-12-09T17:17:22.950Z,8.77
2018-12-09T17:19:52.847Z,8.78
2018-12-09T17:22:22.735Z,8.78
2018-12-09T17:24:52.473Z,8.79
2018-12-09T17:30:10.133Z,8.75
2018-12-09T17:32:39.428Z,8.72
2018-12-09T17:35:08.729Z,8.66
2018-12-09T17:37:37.994Z,8.59
2018-12-09T17:40:08.803Z,8.51
2018-12-09T17:42:38.099Z,8.48
2018-12-09T17:45:07.420Z,8.46
2018-12-09T17:47:36.679Z,8.43
2018-12-09T17:50:06.244Z,8.39
2018-12-09T17:52:35.463Z,8.40
2018-12-09T17:55:04.761Z,8.41
2018-12-09T17:57:34.023Z,8.40
2018-12-09T18:00:03.308Z,8.40
2018-12-09T18:02:32.567Z,8.41
2018-12-09T18:05:01.850Z,8.44
2018-12-09T18:07:31.241Z,8.44
2018-12-09T18:10:00.502Z,8.46
2018-12-09T18:12:29.753Z,8.45
2018-12-09T18:14:59.016Z,8.46
2018-12-09T18:17:28.283Z,8.46
2018-12-09T18:19:57.566Z,8.45
2018-12-09T18:22:26.838Z,8.43
2018-12-09T18:25:15.701Z,8.42
2018-12-09T18:27:44.955Z,8.41
2018-12-09T18:30:14.223Z,8.40
2018-12-09T18:32:43.573Z,8.40
2018-12-09T18:35:12.851Z,8.39
2018-12-09T18:40:17.335Z,8.37
2018-12-09T18:42:46.604Z,8.36
2018-12-09T18:45:15.861Z,8.38
2018-12-09T18:47:45.135Z,8.39
2018-12-09T18:50:14.437Z,8.40
2018-12-09T18:52:43.731Z,8.41
2018-12-09T18:55:12.982Z,8.41
2018-12-09T18:57:42.263Z,8.43
2018-12-09T19:00:11.566Z,8.44
2018-12-09T19:02:40.838Z,8.45
2018-12-09T19:05:10.256Z,8.45
2018-12-09T19:07:39.520Z,8.44
2018-12-09T19:10:08.790Z,8.45
2018-12-09T19:12:38.087Z,8.45
2018-12-09T19:15:07.364Z,8.45
2018-12-09T19:17:56.597Z,8.42
2018-12-09T19:20:25.866Z,8.38
2018-12-09T19:22:55.191Z,8.34
2018-12-09T19:25:24.481Z,8.28
2018-12-09T19:27:53.745Z,8.23
2018-12-09T19:30:23.007Z,8.17
2018-12-09T19:32:52.283Z,8.10
2018-12-09T19:35:21.579Z,8.06
2018-12-09T19:37:50.982Z,8.03
2018-12-09T19:40:20.371Z,8.01
2018-12-09T19:42:49.708Z,7.99
2018-12-09T19:45:18.979Z,7.99
2018-12-09T19:47:48.298Z,8.00
2018-12-09T19:50:17.557Z,7.99
2018-12-09T19:52:46.856Z,7.99
2018-12-09T19:55:16.160Z,8.00
2018-12-09T19:57:45.436Z,8.01
2018-12-09T20:00:14.721Z,8.00
2018-12-09T20:02:44.002Z,8.02
2018-12-09T20:05:13.310Z,8.02
2018-12-09T20:07:42.622Z,8.01
2018-12-09T20:10:11.950Z,8.02
2018-12-09T20:12:41.269Z,8.01
2018-12-09T20:15:10.682Z,8.01
2018-12-09T20:17:39.909Z,8.00
2018-12-09T20:20:10.634Z,8.01
2018-12-09T20:22:40.595Z,8.01
2018-12-09T20:25:09.868Z,8.01
2018-12-09T20:27:39.124Z,8.03
2018-12-09T20:30:09.862Z,8.04
2018-12-09T20:32:39.150Z,8.04
2018-12-09T20:35:08.444Z,8.05
2018-12-09T20:37:37.722Z,8.03
2018-12-09T20:40:07.030Z,8.00
2018-12-09T20:42:36.298Z,8.00
2018-12-09T20:45:06.568Z,8.01
2018-12-09T20:47:35.834Z,8.01
2018-12-09T20:50:05.381Z,7.99
2018-12-09T20:52:34.656Z,7.99
2018-12-09T20:55:03.934Z,7.98
2018-12-09T20:57:33.185Z,7.98
2018-12-09T21:00:02.453Z,7.99
2018-12-09T21:02:51.315Z,8.01
2018-12-09T21:05:20.588Z,8.02
2018-12-09T21:07:49.848Z,8.01
2018-12-09T21:10:19.117Z,8.00
2018-12-09T21:12:48.379Z,8.01
2018-12-09T21:15:17.672Z,8.03
2018-12-09T21:17:46.921Z,8.04
2018-12-09T21:20:16.188Z,8.06
2018-12-09T21:22:45.446Z,8.07
2018-12-09T21:25:14.714Z,8.06
2018-12-09T21:27:43.977Z,8.07
2018-12-09T21:30:13.240Z,8.05
2018-12-09T21:32:42.502Z,8.07
2018-12-09T21:35:11.772Z,8.07
2018-12-09T21:37:42.025Z,8.08
2018-12-09T21:40:11.226Z,8.09
2018-12-09T21:42:40.486Z,8.11
2018-12-09T21:45:09.777Z,8.10
2018-12-09T21:47:39.060Z,8.08
2018-12-09T21:50:08.724Z,8.08
2018-12-09T21:52:37.985Z,8.08
2018-12-09T21:55:07.375Z,8.09
2018-12-09T21:57:36.643Z,8.06
2018-12-09T22:02:55.352Z,8.01
2018-12-09T22:05:24.626Z,8.01
2018-12-09T22:07:53.945Z,8.00
2018-12-09T22:10:23.212Z,7.99
2018-12-09T22:12:52.495Z,7.95
2018-12-09T22:15:21.767Z,7.96
2018-12-09T22:17:51.037Z,7.92
2018-12-09T22:20:20.305Z,7.91
2018-12-09T22:22:49.584Z,7.89
2018-12-09T22:25:19.006Z,7.86
2018-12-09T22:27:48.286Z,7.83
2018-12-09T22:30:17.558Z,7.82
2018-12-09T22:32:46.867Z,7.81
2018-12-09T22:35:16.135Z,7.81
2018-12-09T22:37:45.415Z,7.80
2018-12-09T22:40:14.678Z,7.77
2018-12-09T22:42:43.952Z,7.77
2018-12-09T22:45:13.211Z,7.75
2018-12-09T22:47:42.494Z,7.74
2018-12-09T22:50:11.756Z,7.74
2018-12-09T22:52:41.026Z,7.74
2018-12-09T22:55:10.300Z,7.75
2018-12-09T22:57:39.580Z,7.73
2018-12-09T23:00:30.957Z,7.71
2018-12-09T23:03:18.981Z,7.70
2018-12-09T23:05:48.247Z,7.66
2018-12-09T23:08:17.541Z,7.67
2018-12-09T23:10:46.808Z,7.68
2018-12-09T23:13:16.085Z,7.68
2018-12-09T23:15:45.353Z,7.68
2018-12-09T23:18:14.634Z,7.64
2018-12-09T23:20:43.899Z,7.60
2018-12-09T23:23:13.193Z,7.56
2018-12-09T23:25:42.464Z,7.56
2018-12-09T23:28:11.743Z,7.56
2018-12-09T23:30:41.013Z,7.57
2018-12-09T23:33:10.295Z,7.61
2018-12-09T23:35:39.648Z,7.61
2018-12-09T23:38:08.943Z,7.60
2018-12-09T23:40:38.246Z,7.61
2018-12-09T23:43:07.556Z,7.63
2018-12-09T23:45:36.784Z,7.64
2018-12-09T23:48:06.064Z,7.60
2018-12-09T23:50:35.335Z,7.51
2018-12-09T23:53:04.601Z,7.43
2018-12-09T23:55:33.898Z,7.41
2018-12-09T23:58:03.185Z,7.38
